Time;durP1;ratioP1;P1;durP2;ratioP2;P2;SDS_P1;SDS_P2;PMS_P1;PMS_P2;Temp;Humidity;BMP_temperature;BMP_pressure;BME280_temperature;BME280_humidity;BME280_pressure;Samples;Min_cycle;Max_cycle;Signal;HPM_P1;HPM_P2
2022/05/15 00:03:05;;;;;;;1.15;1.10;;;;;;;18.56;44.53;101403.56;5227822;28;20446;-83
2022/05/15 00:05:36;;;;;;;2.15;1.00;;;;;;;18.51;44.66;101395.00;5196160;28;20037;-84
2022/05/15 00:08:07;;;;;;;0.63;0.63;;;;;;;18.48;44.49;101394.28;5227040;28;20053;-83
2022/05/15 00:10:48;;;;;;;11.60;1.75;;;;;;;18.46;44.80;101391.72;5221062;28;20105;-85
2022/05/15 00:13:19;;;;;;;1.35;0.90;;;;;;;18.33;44.32;101393.22;5205359;28;20041;-84
2022/05/15 00:15:50;;;;;;;0.50;0.50;;;;;;;18.30;44.38;101394.25;5205649;28;20028;-84
2022/05/15 00:18:22;;;;;;;1.63;0.90;;;;;;;18.23;44.47;101393.69;5212434;28;20120;-82
2022/05/15 00:20:55;;;;;;;0.90;0.90;;;;;;;18.20;44.47;101385.88;5214035;28;20037;-83
2022/05/15 00:23:26;;;;;;;1.17;0.93;;;;;;;18.15;44.54;101395.84;5207166;28;20022;-84
2022/05/15 00:25:58;;;;;;;0.68;0.68;;;;;;;18.13;44.42;101394.19;5227304;28;20035;-84
2022/05/15 00:28:28;;;;;;;2.80;1.75;;;;;;;18.14;44.61;101377.34;5235654;28;20051;-83
2022/05/15 00:30:59;;;;;;;0.50;0.50;;;;;;;18.11;44.66;101383.66;5201161;28;20105;-83
2022/05/15 00:33:30;;;;;;;5.72;1.65;;;;;;;18.02;44.74;101379.63;5200695;28;20025;-81
2022/05/15 00:36:04;;;;;;;1.55;1.45;;;;;;;18.07;44.62;101387.38;5206400;28;20037;-82
2022/05/15 00:38:34;;;;;;;0.88;0.88;;;;;;;18.03;45.07;101381.38;5218294;28;20040;-83
2022/05/15 00:41:09;;;;;;;0.85;0.85;;;;;;;17.96;44.75;101385.25;5195854;28;20021;-83
2022/05/15 00:43:49;;;;;;;2.90;0.75;;;;;;;17.97;44.65;101391.44;5213304;28;20343;-82
2022/05/15 00:46:29;;;;;;;2.15;1.67;;;;;;;17.92;45.02;101392.47;5230050;28;20033;-83
2022/05/15 00:49:06;;;;;;;1.67;1.27;;;;;;;17.92;45.15;101395.13;5223858;28;20094;-83
2022/05/15 00:51:45;;;;;;;5.05;2.17;;;;;;;17.87;45.35;101394.50;5216599;28;20040;-83
2022/05/15 00:54:30;;;;;;;0.93;0.93;;;;;;;17.89;45.64;101394.41;5240746;28;20041;-82
2022/05/15 00:57:09;;;;;;;0.50;0.50;;;;;;;17.82;45.31;101393.84;5215994;28;20032;-84
2022/05/15 00:59:48;;;;;;;0.80;0.68;;;;;;;17.78;45.39;101392.28;5192532;28;20033;-84
2022/05/15 01:02:22;;;;;;;1.00;1.00;;;;;;;17.75;45.32;101387.97;5206827;28;20025;-83
2022/05/15 01:04:55;;;;;;;1.00;1.00;;;;;;;17.71;45.06;101391.69;5205393;28;20196;-82
2022/05/15 01:07:25;;;;;;;0.25;0.25;;;;;;;17.67;45.33;101383.94;5207331;28;20025;-83
2022/05/15 01:09:56;;;;;;;0.98;0.98;;;;;;;17.66;45.53;101388.41;5186206;28;20068;-84
2022/05/15 01:12:31;;;;;;;1.05;0.95;;;;;;;17.64;45.63;101394.72;5221537;28;20059;-82
2022/05/15 01:15:04;;;;;;;1.58;1.13;;;;;;;17.60;45.61;101389.53;5192486;28;20056;-84
2022/05/15 01:17:35;;;;;;;1.20;1.10;;;;;;;17.57;45.39;101392.31;5226467;28;20036;-82
2022/05/15 01:20:12;;;;;;;1.33;1.15;;;;;;;17.55;45.78;101380.94;5192845;28;20653;-82
2022/05/15 01:22:42;;;;;;;1.65;1.55;;;;;;;17.53;45.80;101388.09;5201099;28;20060;-84
2022/05/15 01:25:24;;;;;;;1.70;1.20;;;;;;;17.51;45.67;101389.94;5215358;28;20124;-82
2022/05/15 01:27:59;;;;;;;1.20;0.80;;;;;;;17.46;45.37;101392.81;5209505;28;20069;-83
2022/05/15 01:30:33;;;;;;;1.63;1.00;;;;;;;17.42;45.86;101385.06;5190720;28;20044;-82
2022/05/15 01:33:05;;;;;;;1.13;1.02;;;;;;;17.39;45.59;101391.38;5210460;28;20037;-85
2022/05/15 01:35:39;;;;;;;1.52;1.10;;;;;;;17.38;45.65;101394.09;5210071;28;20044;-83
2022/05/15 01:38:13;;;;;;;0.95;0.95;;;;;;;17.32;45.90;101389.94;5214105;28;20659;-83
2022/05/15 01:40:49;;;;;;;1.92;1.83;;;;;;;17.26;45.68;101385.75;5195908;28;20920;-83
2022/05/15 01:43:19;;;;;;;1.17;0.95;;;;;;;17.22;45.70;101384.19;5196575;28;20109;-83
2022/05/15 01:45:50;;;;;;;1.38;1.30;;;;;;;17.29;46.24;101388.28;5192865;28;20060;-84
2022/05/15 01:48:21;;;;;;;0.95;0.93;;;;;;;17.26;46.44;101391.06;5211903;28;20039;-84
2022/05/15 01:50:51;;;;;;;2.45;2.25;;;;;;;17.24;46.45;101387.59;5199639;28;20034;-84
2022/05/15 01:53:22;;;;;;;1.65;1.45;;;;;;;17.20;46.62;101388.69;5204920;28;20056;-83
2022/05/15 01:55:53;;;;;;;1.83;1.73;;;;;;;17.16;46.24;101392.38;5215909;28;20076;-82
2022/05/15 01:58:23;;;;;;;0.90;0.90;;;;;;;17.13;46.40;101395.19;5208330;28;20025;-82
2022/05/15 02:00:56;;;;;;;0.65;0.65;;;;;;;17.08;46.22;101394.50;5213055;28;20065;-82
2022/05/15 02:03:27;;;;;;;;;;;;;;;17.11;46.96;101391.75;5194163;28;20055;-83
2022/05/15 02:05:58;;;;;;;3.20;1.40;;;;;;;17.04;46.53;101395.59;5244108;28;19919;-84
2022/05/15 02:08:31;;;;;;;1.50;1.40;;;;;;;17.05;46.98;101402.63;5194672;28;20060;-83
2022/05/15 02:11:02;;;;;;;1.65;1.27;;;;;;;16.98;46.46;101409.97;5197179;28;20033;-82
2022/05/15 02:13:33;;;;;;;1.65;1.20;;;;;;;16.97;46.70;101397.63;5208743;28;20033;-82
2022/05/15 02:16:04;;;;;;;1.60;1.50;;;;;;;16.98;47.10;101402.00;5191375;28;20052;-82
2022/05/15 02:18:34;;;;;;;1.00;1.00;;;;;;;16.90;46.84;101389.03;5212468;28;20025;-82
2022/05/15 02:21:05;;;;;;;1.25;1.13;;;;;;;16.89;46.88;101394.44;5249534;28;20105;-83
2022/05/15 02:24:00;;;;;;;0.82;0.82;;;;;;;16.84;46.71;101394.63;5190180;28;20590;-82
2022/05/15 02:26:33;;;;;;;0.88;0.88;;;;;;;16.81;47.27;101390.31;5196705;28;20113;-83
2022/05/15 02:29:05;;;;;;;0.73;0.73;;;;;;;16.81;47.42;101397.41;5197266;28;20523;-83
2022/05/15 02:31:38;;;;;;;1.17;1.08;;;;;;;16.75;47.28;101395.88;5211681;28;20052;-83
2022/05/15 02:34:09;;;;;;;1.27;1.17;;;;;;;16.74;47.21;101398.56;5174914;28;20059;-82
2022/05/15 02:36:40;;;;;;;0.60;0.60;;;;;;;16.65;47.11;101395.38;5183413;28;20033;-83
2022/05/15 02:39:12;;;;;;;1.02;0.95;;;;;;;16.65;47.07;101398.03;5196321;28;20041;-83
2022/05/15 02:41:42;;;;;;;0.47;0.47;;;;;;;16.60;47.13;101392.09;5192236;28;20037;-81
2022/05/15 02:44:13;;;;;;;1.27;1.17;;;;;;;16.57;47.12;101394.84;5208104;28;20041;-84
2022/05/15 02:46:46;;;;;;;0.50;0.50;;;;;;;16.53;46.93;101404.72;5199037;28;20063;-82
2022/05/15 02:52:06;;;;;;;0.90;0.70;;;;;;;16.47;47.18;101396.19;5244427;28;20043;-83
2022/05/15 02:54:37;;;;;;;0.73;0.73;;;;;;;16.47;47.11;101404.13;5215945;28;20698;-83
2022/05/15 02:57:11;;;;;;;1.77;1.10;;;;;;;16.43;47.18;101402.50;5194412;28;20029;-82
2022/05/15 02:59:44;;;;;;;0.90;0.90;;;;;;;16.40;47.25;101398.22;5195716;28;20391;-82
2022/05/15 03:02:22;;;;;;;1.58;1.20;;;;;;;16.39;47.38;101395.63;5222417;28;20539;-83
2022/05/15 03:04:55;;;;;;;1.25;1.15;;;;;;;16.35;46.86;101397.53;5219389;28;20040;-86
2022/05/15 03:07:25;;;;;;;12.27;2.08;;;;;;;16.32;47.14;101401.16;5191294;28;20484;-82
2022/05/15 03:09:56;;;;;;;0.70;0.70;;;;;;;16.31;47.79;101401.22;5204333;28;20124;-82
2022/05/15 03:12:26;;;;;;;1.48;1.38;;;;;;;16.25;47.53;101391.72;5213840;28;20021;-82
2022/05/15 03:15:00;;;;;;;1.88;1.77;;;;;;;16.24;47.55;101392.66;5206369;28;20045;-82
2022/05/15 03:17:32;;;;;;;0.70;0.70;;;;;;;16.20;47.37;101389.28;5195790;28;20116;-82
2022/05/15 03:20:07;;;;;;;0.85;0.57;;;;;;;16.16;47.39;101392.97;5225052;28;20034;-82
2022/05/15 03:22:38;;;;;;;1.20;1.02;;;;;;;16.18;47.82;101392.91;5190515;28;20048;-82
2022/05/15 03:25:09;;;;;;;0.70;0.70;;;;;;;16.17;47.95;101394.72;5200269;28;20430;-83
2022/05/15 03:27:40;;;;;;;0.95;0.65;;;;;;;16.19;48.03;101394.63;5212005;28;20231;-82
2022/05/15 03:30:11;;;;;;;0.82;0.80;;;;;;;16.08;47.79;101386.25;5201682;28;20033;-83
2022/05/15 03:32:42;;;;;;;0.63;0.63;;;;;;;16.07;47.53;101387.19;5211183;28;20032;-84
2022/05/15 03:35:14;;;;;;;2.20;1.08;;;;;;;16.02;47.54;101385.59;5222680;28;20045;-84
2022/05/15 03:37:47;;;;;;;1.20;0.83;;;;;;;16.01;47.95;101391.78;5214443;28;20044;-84
2022/05/15 03:40:25;;;;;;;0.70;0.70;;;;;;;16.00;48.17;101387.41;5207611;28;20034;-83
2022/05/15 03:42:56;;;;;;;0.68;0.68;;;;;;;15.97;48.07;101382.25;5196607;28;20029;-82
2022/05/15 03:45:27;;;;;;;0.75;0.75;;;;;;;15.93;47.99;101380.63;5243928;28;20060;-84
2022/05/15 03:47:58;;;;;;;1.95;1.42;;;;;;;15.90;48.00;101375.50;5224567;28;20086;-82
2022/05/15 03:50:31;;;;;;;3.38;1.42;;;;;;;15.87;48.07;101370.31;5197853;28;20377;-84
2022/05/15 03:53:02;;;;;;;0.50;0.50;;;;;;;15.84;48.00;101375.69;5209018;28;20045;-82
2022/05/15 03:55:35;;;;;;;1.08;0.90;;;;;;;15.84;48.00;101370.41;5191965;28;20045;-83
2022/05/15 03:58:06;;;;;;;2.25;0.70;;;;;;;15.81;48.26;101359.94;5205164;28;20072;-83
2022/05/15 04:00:49;;;;;;;;;;;;;;;;;;;;;
2022/05/15 04:03:20;;;;;;;1.27;0.95;;;;;;;15.79;48.36;101356.47;5222575;28;20060;-84
2022/05/15 04:05:50;;;;;;;1.05;1.05;;;;;;;15.76;48.51;101364.53;5198034;28;20051;-83
2022/05/15 04:08:21;;;;;;;1.00;1.00;;;;;;;15.73;48.30;101363.75;5216597;28;20029;-84
2022/05/15 04:10:52;;;;;;;0.73;0.70;;;;;;;15.77;48.88;101372.41;5185851;28;20087;-84
2022/05/15 04:13:24;;;;;;;0.50;0.50;;;;;;;15.76;49.15;101361.88;5221404;28;20029;-85
2022/05/15 04:15:55;;;;;;;11.65;1.23;;;;;;;15.73;48.81;101369.03;5219513;28;20101;-84
2022/05/15 04:18:26;;;;;;;1.58;1.48;;;;;;;15.70;49.10;101369.13;5233451;28;20017;-83
2022/05/15 04:20:57;;;;;;;0.80;0.75;;;;;;;15.73;49.69;101374.31;5211402;28;20056;-83
2022/05/15 04:23:29;;;;;;;0.60;0.60;;;;;;;15.64;48.92;101374.69;5212825;28;20082;-84
2022/05/15 04:26:05;;;;;;;0.57;0.57;;;;;;;15.65;49.21;101375.53;5202177;28;20052;-84
2022/05/15 04:28:37;;;;;;;0.88;0.88;;;;;;;15.59;48.99;101376.59;5191737;28;20041;-84
2022/05/15 04:31:07;;;;;;;1.52;1.38;;;;;;;15.58;49.16;101373.13;5200014;28;20040;-83
2022/05/15 04:33:38;;;;;;;0.40;0.40;;;;;;;15.54;49.15;101375.94;5195738;28;20010;-84
2022/05/15 04:36:09;;;;;;;0.82;0.82;;;;;;;15.58;49.41;101382.81;5189918;28;20033;-83
2022/05/15 04:38:39;;;;;;;1.05;1.05;;;;;;;15.54;49.26;101379.44;5211559;28;20032;-84
2022/05/15 04:41:12;;;;;;;25.33;1.35;;;;;;;15.54;49.49;101381.22;5192550;28;20431;-85
2022/05/15 04:43:46;;;;;;;1.15;1.15;;;;;;;15.53;49.24;101387.44;5186809;28;20275;-84
2022/05/15 04:46:17;;;;;;;0.60;0.60;;;;;;;15.54;49.71;101391.81;5225115;28;20025;-83
2022/05/15 04:48:53;;;;;;;1.25;1.15;;;;;;;15.51;49.75;101391.91;5193998;28;20115;-82
2022/05/15 04:51:23;;;;;;;2.15;2.00;;;;;;;15.54;49.76;101389.16;5192911;28;20097;-82
2022/05/15 04:53:54;;;;;;;1.85;1.55;;;;;;;15.52;49.71;101393.63;5186880;28;20091;-84
2022/05/15 04:56:25;;;;;;;1.52;1.38;;;;;;;15.56;50.11;101392.63;5194044;28;20029;-84
2022/05/15 04:58:56;;;;;;;5.45;2.20;;;;;;;15.53;49.92;101392.72;5203766;28;20106;-82
2022/05/15 05:01:29;;;;;;;1.23;1.13;;;;;;;15.56;50.37;101397.91;5211518;28;20620;-83
2022/05/15 05:04:00;;;;;;;1.67;1.58;;;;;;;15.55;50.10;101396.19;5195224;28;20045;-83
2022/05/15 05:06:30;;;;;;;2.70;1.55;;;;;;;15.54;50.09;101397.09;5196762;28;20040;-85
2022/05/15 05:09:02;;;;;;;1.90;1.00;;;;;;;15.55;50.43;101394.38;5188943;28;20029;-83
2022/05/15 05:11:35;;;;;;;1.60;1.33;;;;;;;15.58;50.68;101391.63;5184775;28;20043;-81
2022/05/15 05:14:08;;;;;;;;;;;;;;;15.58;50.67;101385.47;5185560;28;20690;-79
2022/05/15 05:16:39;;;;;;;0.75;0.75;;;;;;;15.57;50.41;101397.84;5205497;28;19917;-81
2022/05/15 05:19:09;;;;;;;5.05;1.35;;;;;;;15.55;50.57;101396.19;5196467;28;20032;-83
2022/05/15 05:21:40;;;;;;;1.45;1.38;;;;;;;15.59;50.79;101400.41;5219679;28;20040;-81
2022/05/15 05:24:26;;;;;;;1.50;1.40;;;;;;;15.63;51.20;101393.22;5215326;28;20033;-82
2022/05/15 05:27:00;;;;;;;11.38;1.67;;;;;;;15.64;51.11;101397.59;5179919;28;20090;-81
2022/05/15 05:29:30;;;;;;;6.95;3.85;;;;;;;15.67;51.50;101402.78;5183431;28;20478;-78
2022/05/15 05:32:03;;;;;;;4.40;1.13;;;;;;;15.67;51.34;101394.84;5196520;28;20244;-79
2022/05/15 05:34:34;;;;;;;1.40;1.30;;;;;;;15.65;50.87;101394.03;5201433;28;20041;-79
2022/05/15 05:37:07;;;;;;;0.82;0.82;;;;;;;15.71;51.36;101405.25;5222680;28;20029;-79
2022/05/15 05:39:37;;;;;;;2.85;2.17;;;;;;;15.68;50.93;101396.56;5203992;28;20595;-81
2022/05/15 05:42:08;;;;;;;1.58;1.48;;;;;;;15.69;51.74;101401.81;5190958;28;20036;-80
2022/05/15 05:44:39;;;;;;;0.77;0.77;;;;;;;15.71;51.33;101407.91;5199395;28;20045;-80
2022/05/15 05:47:09;;;;;;;0.73;0.73;;;;;;;15.73;52.05;101406.06;5203913;28;20036;-82
2022/05/15 05:49:43;;;;;;;0.90;0.90;;;;;;;15.81;51.54;101402.28;5200701;28;20038;-82
2022/05/15 05:52:14;;;;;;;0.88;0.88;;;;;;;15.83;51.26;101395.09;5210781;28;20033;-81
2022/05/15 05:54:44;;;;;;;0.95;0.95;;;;;;;15.86;51.53;101403.84;5208018;28;20049;-82
2022/05/15 05:57:16;;;;;;;0.57;0.57;;;;;;;15.88;51.56;101401.13;5218876;28;20032;-81
2022/05/15 05:59:46;;;;;;;2.05;1.65;;;;;;;15.97;51.68;101398.13;5200487;28;20548;-81
2022/05/15 06:02:16;;;;;;;0.47;0.47;;;;;;;15.99;51.39;101393.63;5202378;28;20037;-81
2022/05/15 06:04:50;;;;;;;0.70;0.70;;;;;;;16.01;51.62;101399.72;5199174;28;20154;-82
2022/05/15 06:07:25;;;;;;;2.17;1.20;;;;;;;16.06;51.58;101399.56;5210935;28;20032;-82
2022/05/15 06:09:56;;;;;;;0.90;0.90;;;;;;;16.12;51.91;101398.47;5237390;28;20128;-82
2022/05/15 06:12:27;;;;;;;0.45;0.45;;;;;;;16.18;51.83;101403.50;5204753;28;20064;-83
2022/05/15 06:14:57;;;;;;;0.57;0.57;;;;;;;16.20;51.86;101397.22;5229785;28;20080;-85
2022/05/15 06:17:29;;;;;;;4.72;2.50;;;;;;;16.30;51.86;101399.50;5215791;28;20020;-82
2022/05/15 06:20:09;;;;;;;4.78;3.17;;;;;;;16.31;51.35;101399.47;5191315;28;20492;-81
2022/05/15 06:22:39;;;;;;;0.65;0.52;;;;;;;16.33;51.42;101400.22;5214181;28;20041;-79
2022/05/15 06:25:10;;;;;;;2.28;1.77;;;;;;;16.41;51.34;101399.06;5220808;28;20048;-80
2022/05/15 06:27:44;;;;;;;0.50;0.50;;;;;;;16.46;51.31;101399.75;5220530;28;20025;-81
2022/05/15 06:30:16;;;;;;;0.77;0.77;;;;;;;16.47;51.13;101401.47;5196147;28;20036;-80
2022/05/15 06:32:47;;;;;;;0.30;0.30;;;;;;;16.53;51.46;101395.91;5223554;28;20036;-81
2022/05/15 06:35:18;;;;;;;0.50;0.50;;;;;;;16.55;51.33;101388.78;5198778;28;20136;-79
2022/05/15 06:37:48;;;;;;;0.50;0.50;;;;;;;16.71;51.66;101398.72;5203105;28;20120;-80
2022/05/15 06:40:19;;;;;;;1.85;0.52;;;;;;;16.68;51.07;101394.44;5216118;28;20719;-81
2022/05/15 06:42:49;;;;;;;1.48;1.38;;;;;;;16.76;51.34;101394.97;5190709;28;20566;-81
2022/05/15 06:45:20;;;;;;;0.47;0.47;;;;;;;16.82;51.28;101391.16;5219583;28;20065;-83
2022/05/15 06:47:51;;;;;;;1.02;1.02;;;;;;;16.80;51.49;101385.94;5195073;28;20057;-81
2022/05/15 06:50:21;;;;;;;0.45;0.45;;;;;;;16.87;51.89;101383.91;5221645;28;20034;-80
2022/05/15 06:52:52;;;;;;;1.50;1.40;;;;;;;16.97;51.37;101385.25;5194183;28;20025;-81
2022/05/15 06:55:23;;;;;;;0.70;0.70;;;;;;;16.97;51.82;101385.25;5198378;28;20033;-83
2022/05/15 06:57:58;;;;;;;1.15;0.47;;;;;;;17.14;51.89;101391.63;5210865;28;20021;-80
2022/05/15 07:00:29;;;;;;;0.40;0.40;;;;;;;17.12;51.45;101388.16;5198073;28;20027;-79
2022/05/15 07:03:01;;;;;;;0.47;0.47;;;;;;;17.21;51.35;101385.13;5175678;28;20021;-80
2022/05/15 07:05:32;;;;;;;2.03;1.40;;;;;;;17.25;53.21;101393.78;5217491;28;20133;-80
2022/05/15 07:08:05;;;;;;;0.88;0.88;;;;;;;17.34;51.62;101395.16;5209047;28;20465;-78
2022/05/15 07:10:35;;;;;;;0.30;0.30;;;;;;;17.39;51.72;101393.19;5184225;28;20037;-81
2022/05/15 07:13:28;;;;;;;0.30;0.30;;;;;;;17.44;51.44;101393.81;5182009;28;20041;-86
2022/05/15 07:15:59;;;;;;;0.65;0.65;;;;;;;17.56;51.20;101392.41;5203983;28;20553;-81
2022/05/15 07:18:32;;;;;;;;;;;;;;;17.58;51.11;101388.75;5205675;28;20025;-83
2022/05/15 07:21:12;;;;;;;1.00;0.85;;;;;;;17.53;51.91;101397.84;5189482;28;19917;-80
2022/05/15 07:23:45;;;;;;;0.47;0.47;;;;;;;17.57;51.95;101389.66;5214514;28;20048;-82
2022/05/15 07:26:19;;;;;;;0.63;0.63;;;;;;;17.71;52.59;101390.84;5187344;28;20029;-81
2022/05/15 07:29:24;;;;;;;0.20;0.20;;;;;;;17.76;51.62;101388.81;5176482;28;20529;-82
2022/05/15 07:31:54;;;;;;;0.30;0.30;;;;;;;17.80;52.10;101390.41;5206877;28;20114;-80
2022/05/15 07:34:25;;;;;;;0.30;0.30;;;;;;;17.85;51.45;101393.69;5203352;28;20315;-79
2022/05/15 07:36:55;;;;;;;2.17;0.68;;;;;;;17.89;51.14;101389.09;5195677;28;20546;-80
2022/05/15 07:39:26;;;;;;;0.70;0.70;;;;;;;17.89;51.44;101387.28;5208437;28;20123;-80
2022/05/15 07:41:57;;;;;;;0.52;0.52;;;;;;;17.93;51.41;101391.53;5182640;28;20033;-77
2022/05/15 07:44:27;;;;;;;0.73;0.73;;;;;;;18.05;51.15;101394.59;5207841;28;20040;-80
2022/05/15 07:46:58;;;;;;;0.88;0.82;;;;;;;18.05;50.82;101394.59;5199127;28;20036;-81
2022/05/15 07:49:43;;;;;;;;;;;;;;;;;;;;;
2022/05/15 07:52:13;;;;;;;0.73;0.73;;;;;;;18.04;51.93;101390.22;5220830;28;20037;-80
2022/05/15 07:54:46;;;;;;;0.73;0.70;;;;;;;18.04;51.37;101392.88;5193853;28;20039;-81
2022/05/15 07:57:30;;;;;;;0.30;0.30;;;;;;;18.11;51.55;101393.41;5185119;28;20116;-82
2022/05/15 08:00:18;;;;;;;0.50;0.50;;;;;;;18.18;51.82;101389.56;5167513;28;20045;-81
2022/05/15 08:03:08;;;;;;;0.30;0.30;;;;;;;18.24;51.65;101378.63;5216151;28;20162;-81
2022/05/15 08:08:27;;;;;;;0.80;0.80;;;;;;;18.33;51.42;101374.63;5223223;28;20504;-81
2022/05/15 08:11:00;;;;;;;2.53;1.85;;;;;;;18.36;51.31;101371.84;5220816;28;20057;-81
2022/05/15 08:13:31;;;;;;;0.50;0.50;;;;;;;18.41;51.60;101369.81;5193755;28;20021;-80
2022/05/15 08:16:02;;;;;;;0.40;0.40;;;;;;;18.55;50.67;101374.44;5224410;28;20302;-81
2022/05/15 08:24:23;;;;;;;0.85;0.50;;;;;;;18.66;50.61;101358.81;5213004;28;20118;-80
2022/05/15 08:26:54;;;;;;;0.30;0.30;;;;;;;18.63;50.75;101360.78;5221998;28;20032;-82
2022/05/15 08:29:24;;;;;;;0.70;0.70;;;;;;;18.65;51.06;101356.22;5201058;28;20124;-79
2022/05/15 08:31:55;;;;;;;0.73;0.70;;;;;;;18.74;50.52;101353.09;5186809;28;20120;-80
2022/05/15 08:34:26;;;;;;;0.40;0.40;;;;;;;18.76;50.50;101348.56;5211687;28;20049;-79
2022/05/15 08:36:57;;;;;;;0.73;0.73;;;;;;;18.91;50.35;101346.91;5200653;28;20040;-79
2022/05/15 08:39:29;;;;;;;0.40;0.40;;;;;;;19.00;50.33;101342.94;5205517;28;20041;-79
2022/05/15 08:42:28;;;;;;;0.70;0.70;;;;;;;18.92;50.54;101345.09;5199005;28;20103;-81
2022/05/15 08:45:00;;;;;;;0.90;0.73;;;;;;;18.93;50.40;101342.38;5200034;28;20263;-80
2022/05/15 08:47:45;;;;;;;0.85;0.85;;;;;;;19.05;50.51;101342.69;5186611;28;20029;-79
2022/05/15 08:50:18;;;;;;;0.75;0.63;;;;;;;19.08;50.55;101338.06;5202516;28;20049;-80
2022/05/15 08:52:56;;;;;;;0.30;0.30;;;;;;;19.09;50.41;101334.47;5180045;28;20120;-84
2022/05/15 08:55:42;;;;;;;1.05;0.68;;;;;;;19.14;50.60;101336.88;5197572;28;20047;-85
2022/05/15 08:58:21;;;;;;;0.30;0.30;;;;;;;19.20;50.37;101336.56;5214111;28;20033;-82
2022/05/15 09:00:54;;;;;;;4.88;1.50;;;;;;;19.18;50.47;101331.31;5183427;28;20053;-80
2022/05/15 09:03:30;;;;;;;0.70;0.70;;;;;;;19.25;49.18;101334.53;5188681;28;20029;-80
2022/05/15 09:06:07;;;;;;;1.75;1.60;;;;;;;19.23;48.89;101335.50;5214728;28;20358;-81
2022/05/15 09:09:00;;;;;;;0.28;0.28;;;;;;;19.31;49.07;101338.63;5212508;28;20041;-80
2022/05/15 09:11:37;;;;;;;0.90;0.85;;;;;;;19.35;48.30;101342.84;5194043;28;20136;-80
2022/05/15 09:14:20;;;;;;;1.85;1.65;;;;;;;19.45;48.27;101344.06;5199047;28;20041;-82
2022/05/15 09:17:18;;;;;;;1.33;1.27;;;;;;;19.49;48.31;101342.09;5184965;28;20036;-81
2022/05/15 09:19:54;;;;;;;0.85;0.80;;;;;;;19.48;47.03;101341.22;5196557;28;20044;-81
2022/05/15 09:22:30;;;;;;;0.30;0.30;;;;;;;19.42;47.40;101338.91;5189053;28;20028;-81
2022/05/15 09:25:06;;;;;;;0.85;0.77;;;;;;;19.46;47.90;101343.09;5177324;28;20059;-81
2022/05/15 09:27:37;;;;;;;0.75;0.75;;;;;;;19.56;47.60;101337.28;5189445;28;20456;-81
2022/05/15 09:30:10;;;;;;;0.47;0.47;;;;;;;19.67;47.85;101335.75;5188348;28;20052;-82
2022/05/15 09:32:44;;;;;;;0.60;0.60;;;;;;;19.64;47.71;101335.94;5202299;28;20029;-82
2022/05/15 09:35:41;;;;;;;0.65;0.65;;;;;;;19.70;47.29;101329.41;5181460;28;20041;-81
2022/05/15 09:38:29;;;;;;;0.50;0.50;;;;;;;19.91;46.36;101321.16;5225251;28;20033;-81
2022/05/15 09:44:27;;;;;;;2.28;0.55;;;;;;;19.85;46.63;101326.84;5216128;28;20045;-81
2022/05/15 09:47:22;;;;;;;0.40;0.40;;;;;;;19.93;47.47;101319.28;5184070;28;20025;-81
2022/05/15 09:49:53;;;;;;;6.97;1.15;;;;;;;19.97;46.76;101316.38;5218723;28;20090;-82
2022/05/15 09:52:34;;;;;;;0.82;0.52;;;;;;;19.98;46.75;101311.88;5196580;28;20112;-81
2022/05/15 09:55:07;;;;;;;1.45;1.05;;;;;;;20.01;44.56;101316.16;5195534;28;20037;-81
2022/05/15 09:57:53;;;;;;;0.90;0.75;;;;;;;20.06;46.10;101309.63;5208371;28;20571;-82
2022/05/15 10:00:27;;;;;;;0.73;0.73;;;;;;;20.18;46.02;101299.22;5226505;28;20044;-83
2022/05/15 10:03:22;;;;;;;0.20;0.20;;;;;;;20.27;46.16;101301.34;5197065;28;20017;-82
2022/05/15 10:05:58;;;;;;;0.40;0.40;;;;;;;20.27;45.58;101309.34;5195080;28;20037;-81
2022/05/15 10:08:30;;;;;;;0.22;0.22;;;;;;;20.25;45.56;101304.09;5218068;28;20033;-81
2022/05/15 10:11:06;;;;;;;0.60;0.47;;;;;;;20.33;46.46;101300.13;5186146;28;20389;-81
2022/05/15 10:13:50;;;;;;;2.85;1.38;;;;;;;20.38;46.39;101295.38;5194691;28;20383;-82
2022/05/15 10:16:24;;;;;;;0.30;0.30;;;;;;;20.45;46.48;101302.91;5217861;28;20067;-82
2022/05/15 10:19:04;;;;;;;0.35;0.35;;;;;;;20.55;45.94;101297.91;5228630;28;20052;-82
2022/05/15 10:21:40;;;;;;;0.60;0.60;;;;;;;20.79;44.08;101297.38;5208562;28;20139;-82
2022/05/15 10:24:16;;;;;;;0.95;0.90;;;;;;;20.79;44.55;101288.50;5199847;28;20040;-82
2022/05/15 10:27:04;;;;;;;0.40;0.40;;;;;;;20.74;45.43;101288.81;5203750;28;20033;-82
2022/05/15 10:29:51;;;;;;;0.63;0.63;;;;;;;20.92;45.24;101297.50;5185744;28;20056;-83
2022/05/15 10:32:50;;;;;;;0.55;0.55;;;;;;;20.89;45.30;101287.00;5190198;28;20036;-82
2022/05/15 10:35:42;;;;;;;1.45;1.05;;;;;;;20.96;45.24;101285.66;5218324;28;20082;-83
2022/05/15 10:38:30;;;;;;;0.30;0.30;;;;;;;20.97;44.91;101289.22;5210996;28;20025;-82
2022/05/15 10:41:14;;;;;;;0.57;0.40;;;;;;;21.07;44.54;101291.19;5202651;28;20037;-83
2022/05/15 10:43:58;;;;;;;0.77;0.77;;;;;;;21.05;45.17;101282.44;5201537;28;20039;-82
2022/05/15 10:46:38;;;;;;;1.80;0.60;;;;;;;21.18;45.25;101274.50;5206580;28;20025;-82
2022/05/15 10:49:38;;;;;;;1.00;0.75;;;;;;;21.26;44.89;101276.72;5221594;28;20233;-82
2022/05/15 10:52:38;;;;;;;0.35;0.35;;;;;;;21.28;45.20;101272.09;5174744;28;20041;-83
2022/05/15 10:58:31;;;;;;;0.32;0.32;;;;;;;21.44;44.87;101261.31;5237839;28;20232;-81
2022/05/15 11:01:32;;;;;;;0.32;0.32;;;;;;;21.52;45.18;101259.00;5191979;28;20037;-83
2022/05/15 11:04:44;;;;;;;0.63;0.50;;;;;;;21.64;44.93;101259.22;5196872;28;20056;-82
2022/05/15 11:07:25;;;;;;;0.73;0.68;;;;;;;21.74;44.82;101256.78;5218919;28;20048;-82
2022/05/15 11:10:12;;;;;;;0.30;0.30;;;;;;;21.88;45.00;101253.22;5191190;28;20037;-82
2022/05/15 11:12:47;;;;;;;0.38;0.38;;;;;;;21.96;44.22;101256.22;5210589;28;20301;-82
2022/05/15 11:15:41;;;;;;;0.30;0.30;;;;;;;22.13;42.87;101252.41;5242553;28;20041;-83
2022/05/15 11:18:31;;;;;;;0.20;0.20;;;;;;;22.12;42.59;101240.88;5204911;28;20451;-83
2022/05/15 11:21:10;;;;;;;0.43;0.43;;;;;;;22.22;42.99;101233.06;5194838;28;20041;-83
2022/05/15 11:23:56;;;;;;;1.00;0.88;;;;;;;22.27;43.63;101230.94;5199875;28;20041;-83
2022/05/15 11:26:44;;;;;;;4.38;1.50;;;;;;;22.42;42.72;101222.88;5216838;28;20060;-83
2022/05/15 11:29:18;;;;;;;0.90;0.90;;;;;;;22.45;42.71;101226.19;5238557;28;20632;-83
2022/05/15 11:31:57;;;;;;;4.15;2.05;;;;;;;22.57;41.99;101226.25;5189305;28;20032;-82
2022/05/15 11:35:05;;;;;;;0.20;0.20;;;;;;;22.66;42.03;101211.41;5198089;28;20037;-82
2022/05/15 11:37:41;;;;;;;0.25;0.25;;;;;;;22.77;41.71;101219.50;5191190;28;20380;-82
2022/05/15 11:40:56;;;;;;;0.30;0.30;;;;;;;22.84;41.88;101212.78;5185673;28;20613;-82
2022/05/15 11:43:29;;;;;;;0.85;0.85;;;;;;;22.89;40.63;101202.59;5201426;28;20254;-86
2022/05/15 11:46:08;;;;;;;0.20;0.20;;;;;;;23.05;41.08;101196.13;5190653;28;20573;-83
2022/05/15 11:48:38;;;;;;;1.38;1.27;;;;;;;23.13;39.23;101201.78;5192802;28;20099;-82
2022/05/15 11:51:15;;;;;;;0.47;0.47;;;;;;;23.27;38.92;101196.31;5220182;28;20033;-83
2022/05/15 11:53:54;;;;;;;0.32;0.32;;;;;;;23.15;39.10;101186.47;5230169;28;20028;-84
2022/05/15 11:56:26;;;;;;;0.45;0.45;;;;;;;23.38;40.00;101192.00;5188882;28;20029;-82
2022/05/15 11:59:03;;;;;;;0.30;0.30;;;;;;;23.51;40.19;101182.06;5187699;28;20033;-87
2022/05/15 12:01:35;;;;;;;0.65;0.65;;;;;;;23.47;38.93;101174.41;5179178;28;20029;-83
2022/05/15 12:04:09;;;;;;;0.40;0.40;;;;;;;23.58;38.19;101175.31;5196982;28;20091;-84
2022/05/15 12:06:44;;;;;;;0.55;0.55;;;;;;;23.66;38.99;101185.41;5206225;28;20056;-81
2022/05/15 12:09:18;;;;;;;0.30;0.30;;;;;;;23.73;36.00;101180.47;5223591;28;20248;-85
2022/05/15 12:11:51;;;;;;;0.50;0.50;;;;;;;23.88;34.48;101167.75;5248842;28;20032;-84
2022/05/15 12:14:21;;;;;;;0.20;0.20;;;;;;;23.77;34.99;101171.22;5226954;28;20061;-82
2022/05/15 12:17:13;;;;;;;0.82;0.82;;;;;;;23.83;36.80;101162.72;5211831;28;20029;-81
2022/05/15 12:19:48;;;;;;;0.77;0.77;;;;;;;24.04;36.95;101162.06;5219506;28;20823;-83
2022/05/15 12:22:18;;;;;;;0.30;0.30;;;;;;;24.14;37.85;101163.06;5228935;28;20063;-80
2022/05/15 12:24:49;;;;;;;0.30;0.30;;;;;;;24.25;36.42;101158.69;5198785;28;20086;-82
2022/05/15 12:27:24;;;;;;;1.65;0.75;;;;;;;24.29;36.58;101155.66;5223547;28;20041;-80